Flight Track Log - Related Links

Times and Time Zones

All times are in EDT time to prevent confusion due to time zone crossing. See the SKW5162 flight status page for this flight to view local times or setup timezone preferences in your user account.

Time Position Orientation Groundspeed Altitude Reporting Facility
EDT Latitude Longitude Course Direction KTS MPH feet Rate Location/Type
Sun 04:56:31 PM 28.4167 -81.3167 270° West 166 191 500  Level Orlando TRACON
Sun 04:57:25 PM 28.3833 -81.3333 204° Southwest 211 243 2,000 2,211 Climbing Orlando TRACON
Sun 04:58:25 PM 28.3167 -81.3667 204° Southwest 215 247 4,700 2,300 Climbing Orlando TRACON
Sun 04:59:00 PM 28.4167 -81.6750 270° West  Level FlightAware Approximate
Sun 04:59:25 PM 28.3167 -81.4333 270° West 253 291 6,600  Level Orlando TRACON
Sun 05:00:00 PM 28.4167 -81.8000 270° West  Level FlightAware Approximate
Sun 05:00:25 PM 28.3167 -81.5167 270° West 275 316 8,000  Level Orlando TRACON
Sun 05:01:00 PM 28.4167 -81.9250 270° West  Level FlightAware Approximate
Sun 05:01:25 PM 28.3333 -81.6000 283° West 286 329 10,200  Level Orlando TRACON
Sun 05:03:19 PM 28.3478 -81.7981 275° West 367 422 13,800 1,828 Climbing Jacksonville Center
Sun 05:04:19 PM 28.3547 -81.9114 274° West 367 422 15,500 1,750 Climbing Jacksonville Center
Sun 05:05:19 PM 28.3597 -82.0269 273° West 367 422 17,300 1,800 Climbing Jacksonville Center
Sun 05:06:19 PM 28.3669 -82.1400 274° West 367 422 19,100 1,650 Climbing Jacksonville Center
Sun 05:07:19 PM 28.3717 -82.2603 273° West 367 422 20,600 1,450 Climbing Jacksonville Center
Sun 05:08:19 PM 28.3764 -82.3783 273° West 372 428 22,000 1,150 Climbing Jacksonville Center
Sun 05:09:19 PM 28.4289 -82.4842 299° West 368 423 22,900 950 Climbing Jacksonville Center
Sun 05:10:19 PM 28.5167 -82.5594 323° Northwest 367 422 23,900 950 Climbing Jacksonville Center
Sun 05:11:19 PM 28.6089 -82.6372 323° Northwest 387 445 24,800 800 Climbing Jacksonville Center
Sun 05:12:19 PM 28.7092 -82.7244 323° Northwest 410 472 25,500 750 Climbing Jacksonville Center
Sun 05:13:19 PM 28.8031 -82.8072 322° Northwest 425 489 26,300 750 Climbing Jacksonville Center
Sun 05:14:19 PM 28.9011 -82.8950 322° Northwest 435 501 27,000 850 Climbing Jacksonville Center
Sun 05:15:19 PM 29.0014 -82.9781 324° Northwest 440 506 28,000 1,050 Climbing Jacksonville Center
Sun 05:16:19 PM 29.0972 -83.0636 322° Northwest 445 512 29,100 1,200 Climbing Jacksonville Center
Sun 05:17:19 PM 29.1911 -83.1447 323° Northwest 440 506 30,400 1,250 Climbing Jacksonville Center
Sun 05:18:19 PM 29.2806 -83.2258 322° Northwest 429 494 31,600 1,150 Climbing Jacksonville Center
Sun 05:19:19 PM 29.3722 -83.3097 321° Northwest 424 488 32,700 1,100 Climbing Jacksonville Center
Sun 05:20:19 PM 29.4639 -83.3886 323° Northwest 424 488 33,800 1,150 Climbing Jacksonville Center
Sun 05:21:19 PM 29.5511 -83.4681 322° Northwest 413 475 35,000 900 Climbing Jacksonville Center
Sun 05:22:19 PM 29.6386 -83.5497 321° Northwest 413 475 35,600 500 Climbing Jacksonville Center
Sun 05:23:19 PM 29.7089 -83.6411 312° West 401 461 36,000 200 Climbing Jacksonville Center
Sun 05:24:19 PM 29.7436 -83.7656 288° West 389 448 36,000  Level Jacksonville Center
Sun 05:25:19 PM 29.7761 -83.8975 286° West 404 465 36,000 500 Level Jacksonville Center
Sun 05:26:19 PM 29.8042 -84.0272 284° West 411 473 37,000 1,000 Climbing Jacksonville Center
Sun 05:27:19 PM 29.8322 -84.1519 285° West 416 479 38,000 500 Climbing Jacksonville Center
Sun 05:28:19 PM 29.8603 -84.2744 285° West 409 471 38,000 -50 Level Jacksonville Center
Sun 05:29:19 PM 29.8903 -84.3994 286° West 409 471 37,900  Descending Jacksonville Center
Sun 05:30:19 PM 29.9178 -84.5269 284° West 409 471 38,000 50 Climbing Jacksonville Center
Sun 05:31:19 PM 29.9475 -84.6425 287° West 417 480 38,000  Level Jacksonville Center
Sun 05:32:19 PM 29.9750 -84.7700 284° West 412 474 38,000  Level Jacksonville Center
Sun 05:33:19 PM 30.0044 -84.8953 285° West 412 474 38,000  Level Jacksonville Center
Sun 05:34:19 PM 30.0294 -85.0231 283° West 412 474 38,000  Level Jacksonville Center
Sun 05:35:19 PM 30.0586 -85.1461 285° West 412 474 38,000  Level Jacksonville Center
Sun 05:36:19 PM 30.0856 -85.2714 284° West 407 468 38,000  Level Jacksonville Center
Sun 05:37:19 PM 30.1142 -85.4161 283° West 416 479 38,000  Level Jacksonville Center
Sun 05:38:19 PM 30.1408 -85.5442 284° West 420 483 38,000  Level Jacksonville Center
Sun 05:39:19 PM 30.1694 -85.6650 285° West 412 474 38,000  Level Jacksonville Center
Sun 05:40:19 PM 30.1983 -85.7814 286° West 420 483 38,000  Level Jacksonville Center
Sun 05:41:19 PM 30.2247 -85.9047 284° West 414 476 38,000  Level Jacksonville Center
Sun 05:42:19 PM 30.2508 -86.0306 284° West 408 470 38,000  Level Jacksonville Center
Sun 05:43:19 PM 30.2789 -86.1564 285° West 408 470 38,000  Level Jacksonville Center
Sun 05:44:19 PM 30.3050 -86.2850 283° West 408 470 38,000  Level Jacksonville Center
Sun 05:45:19 PM 30.3328 -86.4133 284° West 408 470 38,000  Level Jacksonville Center
Sun 05:46:19 PM 30.3583 -86.5394 283° West 408 470 38,000  Level Jacksonville Center
Sun 05:47:19 PM 30.3839 -86.6706 283° West 415 478 38,000  Level Jacksonville Center
Sun 05:48:19 PM 30.4133 -86.7969 285° West 415 478 38,000  Level Jacksonville Center
Sun 05:49:19 PM 30.4386 -86.9281 283° West 415 478 38,000  Level Jacksonville Center
Sun 05:50:19 PM 30.4550 -87.0683 278° West 415 478 38,000  Level Jacksonville Center
Sun 05:51:19 PM 30.4525 -87.2033 269° West 415 478 38,000  Level Jacksonville Center
Sun 05:53:11 PM 30.4522 -87.4308 270° West 409 471 38,000  Level Houston Center
Sun 05:54:13 PM 30.4486 -87.5639 268° West 413 475 38,000  Level Houston Center
Sun 05:55:15 PM 30.4469 -87.6950 269° West 408 470 38,000  Level Houston Center
Sun 05:56:17 PM 30.4442 -87.8525 269° West 408 470 38,000  Level Houston Center
Sun 05:57:19 PM 30.4425 -87.9836 269° West 407 468 38,000  Level Houston Center
Sun 05:58:21 PM 30.4403 -88.1144 269° West 406 467 38,000  Level Houston Center
Sun 05:59:23 PM 30.4375 -88.2469 269° West 409 471 38,000  Level Houston Center
Sun 06:00:25 PM 30.4347 -88.3778 269° West 406 467 38,000  Level Houston Center
Sun 06:01:27 PM 30.4328 -88.5103 269° West 409 471 38,000  Level Houston Center
Sun 06:02:29 PM 30.4289 -88.6428 268° West 411 473 38,000  Level Houston Center
Sun 06:03:31 PM 30.4258 -88.8014 269° West 410 472 38,000  Level Houston Center
Sun 06:04:33 PM 30.4225 -88.9333 268° West 410 472 38,000  Level Houston Center
Sun 06:05:35 PM 30.4203 -89.0575 269° West 411 473 38,000  Level Houston Center
Sun 06:06:37 PM 30.4167 -89.1900 268° West 413 475 38,000  Level Houston Center
Sun 06:07:39 PM 30.3856 -89.3439 257° West 412 474 38,000  Level Houston Center
Sun 06:08:41 PM 30.3414 -89.4664 247° West 411 473 38,000  Level Houston Center
Sun 06:09:43 PM 30.2975 -89.5900 248° West 411 473 38,000  Level Houston Center
Sun 06:10:45 PM 30.2486 -89.7222 247° West 423 487 38,000  Level Houston Center
Sun 06:11:47 PM 30.2039 -89.8494 248° West 429 494 38,000  Level Houston Center
Sun 06:12:49 PM 30.1597 -89.9756 248° West 421 484 38,000  Level Houston Center
Sun 06:13:51 PM 30.1164 -90.1014 248° West 421 484 38,000  Level Houston Center
Sun 06:14:53 PM 30.0697 -90.2278 247° West 426 490 38,000  Level Houston Center
Sun 06:15:55 PM 30.0253 -90.3533 248° West 426 490 38,000  Level Houston Center
Sun 06:16:57 PM 29.9700 -90.5058 247° West 429 494 38,000  Level Houston Center
Sun 06:17:59 PM 29.9242 -90.6317 247° West 428 493 38,000  Level Houston Center
Sun 06:19:01 PM 29.8900 -90.7617 253° West 425 489 38,000  Level Houston Center
Sun 06:20:03 PM 29.8689 -90.8950 260° West 424 488 38,000  Level Houston Center
Sun 06:21:05 PM 29.8472 -91.0275 259° West 422 486 38,000  Level Houston Center
Sun 06:22:07 PM 29.8239 -91.1608 259° West 424 488 38,000  Level Houston Center
Sun 06:23:09 PM 29.7956 -91.3214 259° West 426 490 38,000  Level Houston Center
Sun 06:24:11 PM 29.7731 -91.4539 259° West 423 487 38,000  Level Houston Center
Sun 06:25:13 PM 29.7503 -91.5878 259° West 426 490 38,000  Level Houston Center
Sun 06:26:15 PM 29.7269 -91.7239 259° West 427 491 38,000  Level Houston Center
Sun 06:27:17 PM 29.7039 -91.8583 259° West 428 493 38,000  Level Houston Center
Sun 06:28:19 PM 29.6789 -91.9933 258° West 431 496 38,000  Level Houston Center
Sun 06:29:21 PM 29.6558 -92.1292 259° West 432 497 38,000 -242 Level Houston Center
Sun 06:30:23 PM 29.6275 -92.2914 259° West 432 497 37,500 -726 Descending Houston Center
Sun 06:31:25 PM 29.6033 -92.4264 258° West 431 496 36,500 -968 Descending Houston Center
Sun 06:32:27 PM 29.5783 -92.5625 258° West 434 499 35,500 -968 Descending Houston Center
Sun 06:33:29 PM 29.5533 -92.6994 258° West 437 503 34,500 -968 Descending Houston Center
Sun 06:34:31 PM 29.5283 -92.8369 258° West 440 506 33,500 -968 Descending Houston Center
Sun 06:35:33 PM 29.5214 -92.9772 267° West 440 506 32,500 -1,065 Descending Houston Center
Sun 06:36:35 PM 29.5217 -93.1458 270° West 440 506 31,300 -1,065 Descending Houston Center
Sun 06:37:37 PM 29.5203 -93.2878 269° West 441 507 30,300 -968 Descending Houston Center
Sun 06:38:39 PM 29.5197 -93.4303 270° West 444 511 29,300 -1,016 Descending Houston Center
Sun 06:39:41 PM 29.5183 -93.5739 269° West 449 517 28,200 -1,742 Descending Houston Center
Sun 06:40:43 PM 29.5183 -93.7183 270° West 451 519 25,700 -2,613 Descending Houston Center
Sun 06:41:45 PM 29.5172 -93.8600 270° West 446 513 22,800 -3,115 Descending Houston Center
Sun 06:42:54 PM 29.5219 -94.0342 272° West 413 475 18,900 -3,194 Descending Houston Center
Sun 06:43:49 PM 29.5261 -94.1517 272° West 413 475 16,200 -2,838 Descending Houston Center
Sun 06:44:08 PM 29.5275 -94.1922 272° West 405 466 15,400 -2,419 Descending Houston Center
Sun 06:44:51 PM 29.5303 -94.2817 272° West 402 463 13,700 -2,118 Descending Houston Center
Sun 06:45:16 PM 29.5331 -94.3333 274° West 391 450 13,000 -677 Descending Houston Center
Sun 06:45:53 PM 29.5575 -94.3986 293° West 393 452 13,000 -492 Level Houston Center
Sun 06:46:17 PM 29.5758 -94.4456 294° West 388 447 12,500 -968 Descending Houston Center
Sun 06:46:55 PM 29.6036 -94.5097 296° West 386 444 12,000 -1,082 Descending Houston Center
Sun 06:47:18 PM 29.6275 -94.5639 297° West 389 448 11,400 -1,645 Descending Houston Center
Sun 06:47:57 PM 29.6514 -94.6211 296° West 391 450 10,300 -1,355 Descending Houston Center
Sun 06:48:20 PM 29.6742 -94.6783 295° West 385 443 10,000 -290 Descending Houston Center
Sun 06:48:59 PM 29.6975 -94.7289 298° West 384 442 10,000 -98 Level Houston Center
Sun 06:49:21 PM 29.7150 -94.7742 294° West 300 345 9,900 -581 Descending Houston Center
Sun 06:50:01 PM 29.7344 -94.8144 299° West 315 362 9,400 -1,082 Descending Houston Center
Sun 06:50:22 PM 29.7531 -94.8633 294° West 294 338 8,800 -1,161 Descending Houston Center
Sun 06:51:03 PM 29.7767 -94.9161 297° West 297 342 8,200 -984 Descending Houston Center
Sun 06:51:23 PM 29.7906 -94.9500 295° West 295 339 7,800 -968 Descending Houston Center
Sun 06:52:05 PM 29.8119 -95.0006 296° West 296 341 7,200 -984 Descending Houston Center
Sun 06:52:24 PM 29.8258 -95.0347 295° West 295 339 6,800 -968 Descending Houston Center
Sun 06:53:07 PM 29.8481 -95.0844 297° West 295 339 6,200 -457 Descending Houston Center
Sun 06:54:09 PM 29.8847 -95.1694 296° West 299 344 6,000 -48 Descending Houston Center
Sun 06:55:11 PM 29.9003 -95.2761 280° West 285 328 6,100 48 Climbing Houston Center
Sun 06:56:13 PM 29.9003 -95.3650 270° West 282 325 6,100 -76 Level Houston Center
Sun 06:56:30 PM 29.8992 -95.3944 268° West 282 325 6,000 -97 Descending Houston Center
Sun 06:57:15 PM 29.8997 -95.4547 271° West 282 325 6,000 -393 Level Houston Center
Sun 06:57:31 PM 29.8994 -95.4883 269° West 281 323 5,600 -1,452 Descending Houston Center
Sun 06:58:17 PM 29.9008 -95.5433 272° West 281 323 4,500 -1,574 Descending Houston Center
Sun 06:58:32 PM 29.8989 -95.5778 266° West 274 315 4,000 -484 Descending Houston Center
Sun 06:59:19 PM 29.9019 -95.6297 274° West 274 315 4,000  Level Houston Center
Sun 06:59:34 PM 29.9200 -95.6500 316° Northwest 256 295 4,000 -97 Level Houston Center
Sun 07:00:21 PM 29.9600 -95.6358 17° North 263 303 3,900 -385 Descending Houston Center
Sun 07:01:23 PM 29.9967 -95.5594 61° Northeast 232 267 3,300 -701 Descending Houston Center
Sun 07:02:38 PM 29.9917 -95.4894 95° East 174 200 2,300 -800 Descending Houston Center

Login

Don't have an account? Register now (free) for customized features, flight alerts, and more!